Time;durP1;ratioP1;P1;durP2;ratioP2;P2;SDS_P1;SDS_P2;PMS_P1;PMS_P2;Temp;Humidity;BMP_temperature;BMP_pressure;BME280_temperature;BME280_humidity;BME280_pressure;Samples;Min_cycle;Max_cycle;Signal;HPM_P1;HPM_P2
2023/09/25 09:00:18;;;;;;;;;;;;;;;24.72;63.37;101337.28;1814114;78;20200;-69
2023/09/25 09:02:46;;;;;;;;;;;;;;;24.69;62.80;101338.90;1805697;78;20439;-69
2023/09/25 09:05:14;;;;;;;;;;;;;;;24.65;62.73;101345.01;1812882;79;20156;-69
2023/09/25 09:07:44;;;;;;;;;;;;;;;24.59;62.37;101344.25;1800879;78;20112;-67
2023/09/25 09:10:11;;;;;;;;;;;;;;;24.51;62.52;101338.31;1800622;79;20121;-70
2023/09/25 09:12:41;;;;;;;;;;;;;;;24.46;63.40;101336.57;1818066;79;20192;-69
2023/09/25 09:15:12;;;;;;;;;;;;;;;24.43;63.12;101339.52;1809715;79;20149;-70
2023/09/25 09:17:39;;;;;;;;;;;;;;;24.35;62.96;101342.58;1809818;78;20156;-71
2023/09/25 09:20:07;;;;;;;;;;;;;;;24.25;63.49;101338.59;1807529;79;20177;-68
2023/09/25 09:22:35;;;;;;;;;;;;;;;24.18;63.61;101340.95;1810444;79;20419;-69
2023/09/25 09:25:01;;;;;;;;;;;;;;;24.13;62.98;101337.88;1810474;78;20458;-69
2023/09/25 09:27:30;;;;;;;;;;;;;;;24.10;63.74;101338.64;1802928;78;20131;-70
2023/09/25 09:29:57;;;;;;;;;;;;;;;24.07;64.03;101337.11;1814205;79;20082;-70
2023/09/25 09:32:42;;;;;;;;;;;;;;;24.05;64.15;101340.39;1812665;78;20094;-70
2023/09/25 09:35:07;;;;;;;;;;;;;;;24.05;64.85;101344.39;1788938;79;20161;-68
2023/09/25 09:37:34;;;;;;;;;;;;;;;24.06;65.25;101335.91;1811578;79;20435;-72
2023/09/25 09:40:01;;;;;;;;;;;;;;;24.06;64.92;101333.25;1807667;79;20148;-69
2023/09/25 09:42:30;;;;;;;;;;;;;;;24.04;64.38;101341.87;1800743;79;20334;-73
2023/09/25 09:44:58;;;;;;;;;;;;;;;24.02;64.20;101337.17;1805418;79;20185;-70
2023/09/25 09:47:25;;;;;;;;;;;;;;;23.99;64.73;101343.65;1802812;78;20135;-68
2023/09/25 09:49:52;;;;;;;;;;;;;;;23.99;64.80;101340.98;1802211;78;20359;-69
2023/09/25 09:52:24;;;;;;;;;;;;;;;23.99;64.87;101339.66;1801096;79;20426;-70
2023/09/25 09:54:51;;;;;;;;;;;;;;;24.00;65.37;101337.80;1803785;78;20467;-71
2023/09/25 11:01:30;;;;;;;;;;;;;;;24.61;64.79;101308.99;1754050;80;20171;-68
2023/09/25 11:34:25;;;;;;;;;;;;;;;24.84;65.45;101300.12;1752704;81;20132;-67
2023/09/25 11:36:52;;;;;;;;;;;;;;;24.84;65.34;101303.63;1761335;81;20397;-67
2023/09/25 11:39:19;;;;;;;;;;;;;;;24.83;65.34;101301.94;1755248;81;20120;-66
2023/09/25 11:41:45;;;;;;;;;;;;;;;24.84;65.61;101301.45;1752806;81;20160;-69
2023/09/25 11:44:12;;;;;;;;;;;;;;;24.84;65.80;101298.29;1733274;81;20127;-68
2023/09/25 11:46:41;;;;;;;;;;;;;;;24.88;65.79;101306.34;1727235;82;20405;-69
2023/09/25 11:49:08;;;;;;;;;;;;;;;24.89;65.73;101297.85;1754743;80;20394;-67
2023/09/25 11:51:35;;;;;;;;;;;;;;;24.89;65.66;101305.35;1747522;81;20155;-67
2023/09/25 11:54:02;;;;;;;;;;;;;;;24.90;65.92;101302.19;1726550;81;20133;-67
2023/09/25 11:56:29;;;;;;;;;;;;;;;24.89;65.86;101309.34;1730727;82;20137;-69
2023/09/25 11:58:55;;;;;;;;;;;;;;;24.89;65.62;101304.52;1748879;81;20171;-67
2023/09/25 12:01:22;;;;;;;;;;;;;;;24.88;65.24;101305.01;1743136;81;20117;-66
2023/09/25 12:03:49;;;;;;;;;;;;;;;24.90;65.24;101302.19;1729428;81;20121;-65
2023/09/25 12:06:15;;;;;;;;;;;;;;;24.90;65.59;101310.19;1731836;81;20421;-66
2023/09/25 12:08:43;;;;;;;;;;;;;;;24.89;65.33;101312.50;1706462;82;20112;-67
2023/09/25 12:11:10;;;;;;;;;;;;;;;24.88;65.42;101303.67;1733166;83;20144;-69
2023/09/25 12:13:38;;;;;;;;;;;;;;;24.89;65.21;101312.02;1735129;82;20175;-70
2023/09/25 12:16:08;;;;;;;;;;;;;;;24.89;65.35;101309.34;1717726;82;20115;-64
2023/09/25 12:18:36;;;;;;;;;;;;;;;24.89;65.38;101308.02;1735947;82;20139;-66
2023/09/25 12:21:07;;;;;;;;;;;;;;;24.89;65.16;101304.02;1727528;82;20163;-66
2023/09/25 12:23:34;;;;;;;;;;;;;;;24.90;65.40;101304.86;1744626;82;20111;-68
2023/09/25 12:26:01;;;;;;;;;;;;;;;24.93;65.49;101304.07;1744508;82;20109;-69
2023/09/25 12:28:29;;;;;;;;;;;;;;;24.98;65.30;101301.00;1731746;81;20137;-72
2023/09/25 12:31:04;;;;;;;;;;;;;;;25.02;64.73;101307.71;1727562;81;20151;-69
2023/09/25 12:33:32;;;;;;;;;;;;;;;25.06;64.15;101308.25;1726060;83;20115;-71
2023/09/25 12:36:06;;;;;;;;;;;;;;;25.08;63.11;101301.79;1731927;82;20204;-69
2023/09/25 13:21:50;;;;;;;;;;;;;;;25.16;64.34;101299.72;1769765;81;20411;-69
2023/09/25 13:24:18;;;;;;;;;;;;;;;25.18;64.07;101302.58;1770305;80;20124;-67
2023/09/25 13:26:44;;;;;;;;;;;;;;;25.20;64.23;101309.90;1774465;81;20285;-69
2023/09/25 13:29:12;;;;;;;;;;;;;;;25.18;64.16;101300.41;1776370;81;20125;-68
2023/09/25 13:31:45;;;;;;;;;;;;;;;25.19;63.96;101308.75;1775992;80;20185;-68
2023/09/25 13:34:12;;;;;;;;;;;;;;;25.18;64.32;101302.58;1769945;80;20087;-68
2023/09/25 13:36:39;;;;;;;;;;;;;;;25.18;65.15;101303.91;1765064;81;20106;-69
2023/09/25 13:39:07;;;;;;;;;;;;;;;25.18;65.65;101305.24;1735852;81;20132;-68
2023/09/25 13:41:34;;;;;;;;;;;;;;;25.17;65.72;101308.89;1762528;81;20110;-68
2023/09/25 13:44:02;;;;;;;;;;;;;;;25.16;65.50;101309.88;1774071;80;20473;-68
2023/09/25 13:46:33;;;;;;;;;;;;;;;25.13;66.05;101312.84;1763467;81;20452;-68
2023/09/25 13:49:00;;;;;;;;;;;;;;;25.11;67.01;101315.31;1753528;81;20129;-69
2023/09/25 13:51:28;;;;;;;;;;;;;;;25.08;67.67;101318.27;1763540;81;20153;-68
2023/09/25 13:53:58;;;;;;;;;;;;;;;25.03;67.93;101317.38;1761418;81;20149;-71
2023/09/25 13:56:27;;;;;;;;;;;;;;;24.98;68.17;101317.48;1754979;81;20165;-66
2023/09/25 13:58:55;;;;;;;;;;;;;;;24.94;68.20;101318.23;1762212;81;20125;-68
2023/09/25 14:01:22;;;;;;;;;;;;;;;24.89;68.61;101319.16;1704508;83;20168;-66
